createdAt,value
2019-05-07T00:01:07.912Z,7.79
2019-05-07T00:06:09.670Z,7.66
2019-05-07T00:11:12.617Z,7.47
2019-05-07T00:16:14.394Z,7.33
2019-05-07T00:21:16.236Z,7.20
2019-05-07T00:26:17.671Z,7.04
2019-05-07T00:31:19.227Z,6.90
2019-05-07T00:36:23.081Z,6.72
2019-05-07T00:41:24.927Z,6.62
2019-05-07T00:46:26.352Z,6.54
2019-05-07T00:51:28.240Z,6.36
2019-05-07T00:56:30.038Z,6.35
2019-05-07T01:01:32.357Z,6.20
2019-05-07T01:06:33.950Z,6.05
2019-05-07T01:11:35.715Z,5.96
2019-05-07T01:16:37.091Z,5.88
2019-05-07T01:21:38.643Z,5.82
2019-05-07T01:26:42.403Z,5.79
2019-05-07T01:31:43.580Z,5.74
2019-05-07T01:36:45.110Z,5.64
2019-05-07T01:41:46.635Z,5.55
2019-05-07T01:46:48.168Z,5.47
2019-05-07T01:51:49.673Z,5.47
2019-05-07T01:56:52.193Z,5.43
2019-05-07T02:01:53.836Z,5.44
2019-05-07T02:06:55.386Z,5.40
2019-05-07T02:11:57.247Z,5.40
2019-05-07T02:16:58.809Z,5.43
2019-05-07T02:22:02.583Z,5.40
2019-05-07T02:27:03.750Z,5.42
2019-05-07T02:32:05.617Z,5.43
2019-05-07T02:37:07.023Z,5.45
2019-05-07T02:42:08.549Z,5.43
2019-05-07T02:47:12.729Z,5.43
2019-05-07T02:52:13.893Z,5.42
2019-05-07T02:57:16.954Z,5.43
2019-05-07T03:02:19.017Z,5.44
2019-05-07T03:07:23.900Z,5.39
2019-05-07T03:12:24.756Z,5.34
2019-05-07T03:17:26.185Z,5.30
2019-05-07T03:22:27.659Z,5.25
2019-05-07T03:27:29.413Z,5.23
2019-05-07T03:32:36.531Z,5.23
2019-05-07T03:37:36.315Z,5.24
2019-05-07T03:42:38.136Z,5.23
2019-05-07T03:47:39.646Z,5.21
2019-05-07T03:52:42.841Z,5.15
2019-05-07T03:57:44.980Z,5.13
2019-05-07T04:02:46.390Z,5.13
2019-05-07T04:07:48.192Z,5.08
2019-05-07T04:12:49.776Z,5.16
2019-05-07T04:17:53.703Z,5.35
2019-05-07T04:22:55.576Z,5.52
2019-05-07T04:27:57.078Z,5.60
2019-05-07T04:32:58.597Z,5.79
2019-05-07T04:38:03.422Z,5.99
2019-05-07T04:43:03.807Z,6.17
2019-05-07T04:48:05.291Z,6.36
2019-05-07T04:53:06.837Z,6.53
2019-05-07T04:58:09.213Z,6.74
2019-05-07T05:03:12.937Z,6.94
2019-05-07T05:08:14.536Z,7.12
2019-05-07T05:13:16.157Z,7.27
2019-05-07T05:18:18.212Z,7.40
2019-05-07T05:23:19.916Z,7.53
2019-05-07T05:28:21.983Z,7.72
2019-05-07T05:33:24.284Z,7.92
2019-05-07T05:38:26.127Z,7.98
2019-05-07T05:43:27.662Z,8.07
2019-05-07T05:48:29.164Z,8.21
2019-05-07T05:53:32.716Z,8.35
2019-05-07T05:58:34.236Z,8.48
2019-05-07T06:03:35.728Z,8.57
2019-05-07T06:08:37.251Z,8.79
2019-05-07T06:13:39.214Z,9.04
2019-05-07T06:18:41.975Z,9.39
2019-05-07T06:23:43.573Z,9.69
2019-05-07T06:28:45.178Z,9.84
2019-05-07T06:33:47.376Z,9.96
2019-05-07T06:38:49.757Z,10.06
2019-05-07T06:43:52.158Z,10.22
2019-05-07T06:48:54.270Z,10.37
2019-05-07T06:53:56.904Z,10.46
2019-05-07T06:58:58.691Z,10.50
2019-05-07T07:04:02.628Z,10.60
2019-05-07T07:09:07.948Z,10.90
2019-05-07T07:14:09.342Z,11.05
2019-05-07T07:19:12.422Z,11.23
2019-05-07T07:24:14.127Z,11.48
2019-05-07T07:29:15.632Z,11.85
2019-05-07T07:34:17.481Z,12.02
2019-05-07T07:39:19.303Z,12.32
2019-05-07T07:44:22.339Z,12.55
2019-05-07T07:49:24.248Z,12.80
2019-05-07T07:54:26.307Z,13.13
2019-05-07T07:59:27.878Z,13.32
2019-05-07T08:04:33.374Z,13.56
2019-05-07T08:09:34.912Z,13.50
2019-05-07T08:14:36.447Z,13.67
2019-05-07T08:19:38.337Z,13.68
2019-05-07T08:24:42.395Z,13.62
2019-05-07T08:29:43.789Z,13.70
2019-05-07T08:34:45.311Z,13.69
2019-05-07T08:39:46.806Z,13.77
2019-05-07T08:44:48.349Z,13.95
2019-05-07T08:49:52.314Z,14.20
2019-05-07T08:54:53.935Z,14.64
2019-05-07T09:00:00.247Z,15.12
2019-05-07T09:04:59.131Z,15.46
2019-05-07T09:10:02.465Z,16.04
2019-05-07T09:15:04.386Z,16.21
2019-05-07T09:20:09.121Z,16.83
2019-05-07T09:25:09.872Z,17.29
2019-05-07T09:30:12.787Z,17.37
2019-05-07T09:35:14.679Z,17.62
2019-05-07T09:40:16.196Z,17.89
2019-05-07T09:45:17.698Z,18.06
2019-05-07T09:50:19.350Z,18.00
2019-05-07T09:55:23.135Z,17.43
2019-05-07T10:00:24.333Z,16.94
2019-05-07T10:05:26.625Z,17.16
2019-05-07T10:10:28.206Z,17.28
2019-05-07T10:15:30.044Z,17.45
2019-05-07T10:20:32.740Z,17.90
2019-05-07T10:25:34.811Z,18.22
2019-05-07T10:30:37.939Z,18.40
2019-05-07T10:35:41.009Z,18.30
2019-05-07T10:40:43.751Z,18.44
2019-05-07T10:45:45.364Z,18.44
2019-05-07T10:50:46.900Z,18.65
2019-05-07T10:55:48.397Z,18.72
2019-05-07T11:00:51.972Z,18.74
2019-05-07T11:05:53.448Z,19.21
2019-05-07T11:10:54.950Z,19.18
2019-05-07T11:15:56.884Z,19.12
2019-05-07T11:20:58.553Z,18.48
2019-05-07T11:26:00.025Z,17.51
2019-05-07T11:31:02.292Z,17.30
2019-05-07T11:36:04.246Z,17.42
2019-05-07T11:41:05.916Z,17.63
2019-05-07T11:46:07.710Z,17.29
2019-05-07T11:51:09.688Z,16.56
2019-05-07T11:56:11.795Z,16.08
2019-05-07T12:01:13.784Z,15.43
2019-05-07T12:06:15.268Z,14.74
2019-05-07T12:11:17.155Z,14.46
2019-05-07T12:16:18.680Z,14.86
2019-05-07T12:21:23.627Z,15.57
2019-05-07T12:26:24.401Z,16.21
2019-05-07T12:31:26.108Z,16.50
2019-05-07T12:36:27.657Z,16.44
2019-05-07T12:41:29.506Z,16.47
2019-05-07T12:46:33.369Z,16.63
2019-05-07T12:51:37.636Z,16.91
2019-05-07T12:56:39.059Z,16.84
2019-05-07T13:01:42.196Z,16.75
2019-05-07T13:06:44.277Z,16.83
2019-05-07T13:11:45.791Z,16.93
2019-05-07T13:16:47.731Z,17.01
2019-05-07T13:21:50.073Z,17.22
2019-05-07T13:26:52.189Z,17.36
2019-05-07T13:31:54.471Z,17.34
2019-05-07T13:36:56.338Z,17.31
2019-05-07T13:41:57.881Z,17.59
2019-05-07T13:47:02.132Z,17.52
2019-05-07T13:52:03.939Z,17.39
2019-05-07T13:57:05.489Z,17.29
2019-05-07T14:02:07.841Z,17.13
2019-05-07T14:07:09.499Z,16.95
2019-05-07T14:12:12.331Z,16.99
2019-05-07T14:17:14.185Z,17.06
2019-05-07T14:22:19.150Z,17.00
2019-05-07T14:27:21.049Z,16.85
2019-05-07T14:32:23.191Z,16.73
2019-05-07T14:37:24.765Z,16.37
2019-05-07T14:42:27.227Z,16.18
2019-05-07T14:47:28.889Z,16.46
2019-05-07T14:52:33.798Z,16.95
2019-05-07T14:57:34.110Z,17.15
2019-05-07T15:02:36.753Z,17.54
2019-05-07T15:07:38.568Z,17.83
2019-05-07T15:12:40.138Z,17.65
2019-05-07T15:17:42.075Z,17.74
2019-05-07T15:22:49.592Z,18.12
2019-05-07T15:27:47.568Z,18.01
2019-05-07T15:32:49.415Z,17.90
2019-05-07T15:37:51.803Z,17.42
2019-05-07T15:42:53.433Z,17.01
2019-05-07T15:47:54.747Z,16.65
2019-05-07T15:52:58.711Z,16.68
2019-05-07T15:58:02.659Z,17.11
2019-05-07T16:03:04.701Z,17.65
2019-05-07T16:08:08.579Z,17.74
2019-05-07T16:13:13.731Z,17.53
2019-05-07T16:18:15.468Z,17.75
2019-05-07T16:23:18.131Z,18.39
2019-05-07T16:28:21.795Z,18.94
2019-05-07T16:33:23.841Z,20.44
2019-05-07T16:38:26.076Z,21.36
2019-05-07T16:43:27.622Z,21.07
2019-05-07T16:48:29.219Z,21.06
2019-05-07T16:53:33.070Z,19.96
2019-05-07T16:58:35.059Z,19.29
2019-05-07T17:03:36.792Z,18.68
2019-05-07T17:08:38.694Z,18.27
2019-05-07T17:13:42.277Z,18.06
2019-05-07T17:18:44.526Z,17.87
2019-05-07T17:23:46.748Z,17.79
2019-05-07T17:28:48.542Z,17.58
2019-05-07T17:33:51.652Z,17.40
2019-05-07T17:38:53.552Z,17.30
2019-05-07T17:43:54.907Z,17.32
2019-05-07T17:48:56.419Z,17.29
2019-05-07T17:54:00.272Z,17.03
2019-05-07T17:59:02.901Z,16.95
2019-05-07T18:04:04.662Z,16.83
2019-05-07T18:09:06.840Z,16.54
2019-05-07T18:14:08.717Z,16.33
2019-05-07T18:19:10.246Z,16.14
2019-05-07T18:24:16.410Z,15.86
2019-05-07T18:29:15.705Z,15.54
2019-05-07T18:34:17.906Z,15.24
2019-05-07T18:39:20.525Z,15.02
2019-05-07T18:44:22.563Z,14.80
2019-05-07T18:49:24.240Z,14.61
2019-05-07T18:54:30.897Z,14.35
2019-05-07T18:59:29.361Z,14.10
2019-05-07T19:04:32.797Z,13.80
2019-05-07T19:09:35.825Z,13.55
2019-05-07T19:14:37.354Z,13.37
2019-05-07T19:19:39.224Z,13.22
2019-05-07T19:24:47.115Z,13.07
2019-05-07T19:29:45.845Z,12.91
2019-05-07T19:34:47.729Z,12.85
2019-05-07T19:39:49.206Z,12.66
2019-05-07T19:44:51.872Z,12.59
2019-05-07T19:49:53.916Z,12.44
2019-05-07T19:55:00.691Z,12.27
2019-05-07T19:59:59.083Z,12.06
2019-05-07T20:05:03.311Z,11.92
2019-05-07T20:10:04.116Z,11.74
2019-05-07T20:15:05.984Z,11.62
2019-05-07T20:20:07.481Z,11.58
2019-05-07T20:25:18.115Z,11.55
2019-05-07T20:30:13.051Z,11.43
2019-05-07T20:35:15.339Z,11.30
2019-05-07T20:40:16.873Z,11.13
2019-05-07T20:45:18.494Z,10.98
2019-05-07T20:50:22.242Z,10.88
2019-05-07T20:55:30.489Z,10.78
2019-05-07T21:00:27.254Z,10.71
2019-05-07T21:05:29.026Z,10.73
2019-05-07T21:10:32.827Z,10.81
2019-05-07T21:15:35.129Z,10.87
2019-05-07T21:20:36.598Z,10.87
2019-05-07T21:25:45.548Z,10.82
2019-05-07T21:30:42.804Z,10.76
2019-05-07T21:35:44.427Z,10.68
2019-05-07T21:40:46.302Z,10.65
2019-05-07T21:45:48.357Z,10.59
2019-05-07T21:50:51.965Z,10.47
2019-05-07T21:56:01.830Z,10.43
2019-05-07T22:00:58.461Z,10.39
2019-05-07T22:06:02.471Z,10.32
2019-05-07T22:11:04.690Z,10.20
2019-05-07T22:16:07.225Z,10.13
2019-05-07T22:21:08.712Z,10.10
2019-05-07T22:26:20.127Z,10.06
2019-05-07T22:31:13.909Z,9.99
2019-05-07T22:36:15.428Z,9.93
2019-05-07T22:41:17.181Z,9.87
2019-05-07T22:46:18.608Z,9.84
2019-05-07T22:51:20.082Z,9.85
2019-05-07T22:56:34.253Z,9.85
2019-05-07T23:01:25.080Z,9.83
2019-05-07T23:06:27.034Z,9.82
2019-05-07T23:11:28.441Z,9.84
2019-05-07T23:16:32.407Z,9.88
2019-05-07T23:21:33.628Z,9.87
2019-05-07T23:26:47.289Z,9.90
2019-05-07T23:31:38.812Z,9.92
2019-05-07T23:36:42.100Z,9.93
2019-05-07T23:41:43.659Z,9.92
2019-05-07T23:46:45.234Z,9.88
2019-05-07T23:51:46.782Z,9.86
2019-05-07T23:57:04.473Z,9.86
